createdAt,value
2023-02-06T00:00:24.439Z,12.40
2023-02-06T00:01:32.038Z,12.45
2023-02-06T00:02:36.902Z,11.80
2023-02-06T00:03:40.260Z,11.75
2023-02-06T00:04:44.714Z,12.38
2023-02-06T00:05:59.094Z,12.38
2023-02-06T00:07:02.530Z,12.35
2023-02-06T00:08:07.488Z,11.10
2023-02-06T00:09:11.585Z,12.70
2023-02-06T00:10:15.967Z,12.50
2023-02-06T00:11:19.549Z,11.48
2023-02-06T00:12:26.394Z,11.73
2023-02-06T00:13:32.954Z,11.45
2023-02-06T00:14:41.297Z,11.60
2023-02-06T00:15:47.767Z,12.18
2023-02-06T00:16:50.879Z,12.38
2023-02-06T00:17:57.410Z,11.82
2023-02-06T00:19:02.056Z,11.60
2023-02-06T00:20:09.741Z,11.75
2023-02-06T00:36:08.033Z,10.63
2023-02-06T00:37:11.910Z,11.20
2023-02-06T00:41:58.049Z,10.30
2023-02-06T01:03:26.998Z,10.88
2023-02-06T01:04:31.479Z,9.93
2023-02-06T01:05:38.424Z,10.50
2023-02-06T01:07:47.493Z,9.15
2023-02-06T01:08:55.411Z,9.70
2023-02-06T01:10:01.275Z,9.20
2023-02-06T01:11:15.335Z,10.13
2023-02-06T01:12:19.232Z,9.90
2023-02-06T01:13:23.796Z,11.05
2023-02-06T01:18:06.804Z,9.20
2023-02-06T01:19:11.963Z,9.52
2023-02-06T01:20:23.722Z,9.65
2023-02-06T01:21:28.304Z,8.82
2023-02-06T01:22:35.611Z,9.90
2023-02-06T01:23:42.348Z,9.35
2023-02-06T01:26:33.008Z,9.82
2023-02-06T01:27:45.620Z,8.82
2023-02-06T01:29:14.029Z,8.90
2023-02-06T01:30:23.039Z,9.45
2023-02-06T01:31:30.347Z,10.15
2023-02-06T01:32:40.566Z,9.60
2023-02-06T01:33:46.238Z,9.30
2023-02-06T01:34:50.884Z,9.75
2023-02-06T01:36:00.928Z,10.38
2023-02-06T01:37:06.397Z,10.55
2023-02-06T01:38:09.735Z,9.27
2023-02-06T01:39:16.880Z,9.05
2023-02-06T01:40:24.388Z,10.02
2023-02-06T01:41:33.543Z,9.55
2023-02-06T01:42:41.010Z,10.05
2023-02-06T01:44:13.928Z,9.70
2023-02-06T01:45:27.532Z,9.95
2023-02-06T01:46:34.991Z,8.93
2023-02-06T01:47:43.003Z,10.20
2023-02-06T01:48:52.336Z,9.23
2023-02-06T01:50:03.318Z,10.38
2023-02-06T01:52:16.603Z,9.40
2023-02-06T01:53:23.141Z,10.32
2023-02-06T01:54:27.192Z,8.82
2023-02-06T01:55:31.052Z,8.82
2023-02-06T01:56:42.114Z,9.25
2023-02-06T01:58:03.052Z,9.90
2023-02-06T01:59:13.792Z,9.15
2023-02-06T02:00:22.580Z,9.80
2023-02-06T02:01:28.050Z,10.57
2023-02-06T02:02:34.668Z,10.48
2023-02-06T02:03:41.008Z,9.18
2023-02-06T02:04:46.997Z,10.32
2023-02-06T02:05:51.716Z,9.35
2023-02-06T02:07:22.077Z,10.05
2023-02-06T02:19:29.630Z,9.60
2023-02-06T02:20:51.150Z,9.55
2023-02-06T02:22:19.441Z,11.00
2023-02-06T02:24:07.667Z,10.88
2023-02-06T02:25:47.525Z,9.77
2023-02-06T02:27:30.421Z,9.85
2023-02-06T02:28:45.302Z,9.05
2023-02-06T02:30:01.280Z,9.32
2023-02-06T02:31:38.853Z,10.60
2023-02-06T02:33:06.721Z,9.90
2023-02-06T02:34:45.127Z,10.20
2023-02-06T02:36:02.174Z,9.80
2023-02-06T02:37:30.254Z,10.13
2023-02-06T02:39:07.121Z,9.77
2023-02-06T02:40:20.456Z,9.80
2023-02-06T02:41:24.249Z,9.55
2023-02-06T02:42:41.311Z,10.23
2023-02-06T02:43:56.829Z,9.88
2023-02-06T02:45:11.498Z,11.02
2023-02-06T02:48:08.747Z,10.05
2023-02-06T02:49:18.179Z,10.15
2023-02-06T02:50:24.170Z,10.05
2023-02-06T02:51:29.252Z,9.18
2023-02-06T02:52:36.338Z,9.20
2023-02-06T02:53:41.204Z,9.45
2023-02-06T02:54:44.530Z,10.23
2023-02-06T02:55:48.619Z,10.27
2023-02-06T02:56:57.534Z,10.55
2023-02-06T02:58:14.924Z,10.07
2023-02-06T02:59:35.170Z,11.15
2023-02-06T03:00:53.350Z,10.07
2023-02-06T03:02:11.194Z,9.85
2023-02-06T03:03:23.010Z,8.82
2023-02-06T03:04:38.453Z,9.80
2023-02-06T03:05:53.951Z,9.45
2023-02-06T03:07:17.218Z,9.52
2023-02-06T03:08:51.430Z,9.07
2023-02-06T03:10:17.342Z,9.23
2023-02-06T03:11:22.170Z,9.15
2023-02-06T03:12:27.056Z,9.00
2023-02-06T03:13:38.537Z,9.45
2023-02-06T03:14:56.381Z,9.32
2023-02-06T03:16:20.446Z,9.82
2023-02-06T03:17:50.617Z,9.52
2023-02-06T03:19:03.532Z,9.40
2023-02-06T03:20:12.434Z,9.45
2023-02-06T03:21:19.720Z,8.47
2023-02-06T03:22:27.357Z,10.10
2023-02-06T03:23:37.325Z,8.45
2023-02-06T03:24:41.766Z,9.07
2023-02-06T03:25:47.390Z,9.18
2023-02-06T03:26:52.987Z,8.60
2023-02-06T03:27:59.149Z,8.52
2023-02-06T03:29:06.457Z,9.00
2023-02-06T03:30:13.691Z,8.52
2023-02-06T03:31:25.395Z,8.38
2023-02-06T03:32:35.624Z,8.25
2023-02-06T03:33:49.302Z,8.65
2023-02-06T03:35:29.201Z,7.85
2023-02-06T03:36:33.593Z,8.63
2023-02-06T03:37:38.082Z,8.18
2023-02-06T03:38:51.206Z,8.23
2023-02-06T03:39:59.361Z,8.40
2023-02-06T03:41:06.737Z,6.75
2023-02-06T03:42:13.262Z,8.18
2023-02-06T03:43:22.776Z,7.40
2023-02-06T03:44:33.239Z,7.68
2023-02-06T03:45:52.192Z,7.47
2023-02-06T03:46:58.968Z,7.78
2023-02-06T03:48:19.827Z,7.70
2023-02-06T03:49:28.502Z,7.40
2023-02-06T03:50:37.136Z,7.38
2023-02-06T03:51:48.896Z,7.32
2023-02-06T03:52:57.671Z,7.63
2023-02-06T03:54:07.106Z,7.70
2023-02-06T03:55:23.665Z,8.93
2023-02-06T03:56:36.484Z,8.68
2023-02-06T03:57:42.473Z,7.95
2023-02-06T03:58:47.221Z,8.38
2023-02-06T03:59:50.975Z,7.70
2023-02-06T04:00:58.801Z,7.72
2023-02-06T04:02:05.626Z,8.38
2023-02-06T04:03:11.011Z,8.25
2023-02-06T04:04:25.303Z,7.28
2023-02-06T04:05:30.526Z,7.50
2023-02-06T04:06:39.405Z,6.75
2023-02-06T04:07:43.153Z,7.20
2023-02-06T04:08:51.001Z,7.75
2023-02-06T04:09:54.200Z,7.28
2023-02-06T04:10:58.753Z,7.88
2023-02-06T04:15:46.561Z,7.05
2023-02-06T04:16:51.544Z,7.50
2023-02-06T04:18:00.986Z,8.40
2023-02-06T04:19:10.220Z,8.45
2023-02-06T05:56:50.599Z,7.82
2023-02-06T05:57:53.803Z,7.38
2023-02-06T05:59:01.757Z,7.32
2023-02-06T06:00:09.932Z,8.45
2023-02-06T06:01:17.263Z,8.40
2023-02-06T06:02:22.208Z,8.15
2023-02-06T06:03:28.463Z,8.35
2023-02-06T06:04:34.053Z,7.97
2023-02-06T06:05:39.462Z,8.25
2023-02-06T06:06:43.172Z,7.63
2023-02-06T06:07:52.946Z,8.10
2023-02-06T06:09:01.519Z,7.65
2023-02-06T06:10:09.713Z,8.05
2023-02-06T06:11:15.622Z,8.35
2023-02-06T06:15:18.929Z,7.13
2023-02-06T06:16:25.535Z,7.45
2023-02-06T06:17:33.640Z,7.20
2023-02-06T06:18:39.198Z,7.30
2023-02-06T06:19:50.637Z,7.18
2023-02-06T06:20:55.714Z,6.38
2023-02-06T06:22:00.122Z,7.60
2023-02-06T06:23:06.779Z,7.32
2023-02-06T06:24:13.291Z,7.88
2023-02-06T06:25:18.677Z,8.60
2023-02-06T06:26:21.854Z,8.30
2023-02-06T06:27:27.081Z,8.85
2023-02-06T06:28:31.048Z,7.60
2023-02-06T06:29:39.983Z,7.80
2023-02-06T06:30:45.337Z,8.80
2023-02-06T06:31:53.226Z,8.13
2023-02-06T06:32:57.685Z,8.05
2023-02-06T06:34:03.224Z,7.90
2023-02-06T06:35:08.096Z,8.43
2023-02-06T06:36:14.958Z,7.78
2023-02-06T06:37:18.347Z,8.25
2023-02-06T06:38:21.790Z,8.25
2023-02-06T06:39:28.017Z,8.10
2023-02-06T06:40:36.133Z,8.07
2023-02-06T06:41:43.962Z,8.52
2023-02-06T06:42:47.987Z,8.13
2023-02-06T08:15:58.759Z,7.88
2023-02-06T08:17:03.933Z,7.35
2023-02-06T08:18:09.096Z,7.25
2023-02-06T08:19:12.884Z,7.72
2023-02-06T08:20:16.593Z,7.38
2023-02-06T08:21:25.089Z,7.50
2023-02-06T08:22:34.006Z,6.68
2023-02-06T08:23:39.773Z,7.05
2023-02-06T08:24:44.036Z,7.53
2023-02-06T08:25:54.994Z,7.43
2023-02-06T08:27:03.565Z,6.88
2023-02-06T08:28:15.406Z,7.75
2023-02-06T08:29:25.362Z,6.85
2023-02-06T08:30:34.830Z,7.63
2023-02-06T08:31:44.053Z,7.68
2023-02-06T08:32:54.732Z,7.25
2023-02-06T08:34:14.952Z,7.45
2023-02-06T08:40:48.175Z,8.05
2023-02-06T09:50:27.074Z,9.90
2023-02-06T09:52:05.986Z,10.60
2023-02-06T13:01:58.066Z,14.15
2023-02-06T13:03:27.437Z,15.20
2023-02-06T13:04:36.825Z,14.43
2023-02-06T13:05:59.150Z,15.95
2023-02-06T13:07:48.770Z,15.55
2023-02-06T13:09:03.899Z,16.33
2023-02-06T13:10:10.451Z,16.20
2023-02-06T13:11:41.789Z,16.23
2023-02-06T13:13:03.167Z,16.38
2023-02-06T13:14:20.306Z,15.73
2023-02-06T13:15:38.870Z,16.02
2023-02-06T13:17:27.981Z,15.65
2023-02-06T13:18:42.899Z,15.32
2023-02-06T13:21:44.009Z,15.55
2023-02-06T13:23:20.893Z,15.48
2023-02-06T13:24:32.708Z,15.48
2023-02-06T13:25:57.861Z,16.23
2023-02-06T13:27:29.538Z,17.42
2023-02-06T13:28:41.166Z,16.38
2023-02-06T13:29:55.113Z,16.05
2023-02-06T13:31:29.061Z,15.95
2023-02-06T13:32:45.048Z,16.63
2023-02-06T13:51:57.964Z,17.00
2023-02-06T13:53:38.380Z,17.83
2023-02-06T13:55:08.030Z,16.75
2023-02-06T13:56:43.307Z,15.18
2023-02-06T13:58:27.956Z,16.35
2023-02-06T13:59:52.556Z,16.70
2023-02-06T14:01:02.171Z,16.73
2023-02-06T14:05:48.841Z,15.82
2023-02-06T14:07:36.675Z,15.95
2023-02-06T14:09:04.689Z,16.63
2023-02-06T14:10:17.141Z,18.88
2023-02-06T14:12:05.387Z,18.45
2023-02-06T14:15:06.294Z,17.98
2023-02-06T14:16:35.762Z,19.30
2023-02-06T14:18:33.197Z,19.13
2023-02-06T14:20:02.907Z,19.48
2023-02-06T14:21:26.503Z,18.70
2023-02-06T14:23:30.338Z,20.70
2023-02-06T14:25:05.165Z,18.75
2023-02-06T15:31:40.858Z,17.10
2023-02-06T15:32:55.938Z,17.58
2023-02-06T15:34:07.837Z,18.20
2023-02-06T15:35:37.895Z,16.73
2023-02-06T15:36:48.863Z,17.55
2023-02-06T18:22:56.982Z,18.20
2023-02-06T18:24:10.757Z,18.50
2023-02-06T18:25:15.700Z,19.50
2023-02-06T18:26:21.955Z,18.75
2023-02-06T18:27:27.418Z,18.45
2023-02-06T18:28:30.666Z,18.45
2023-02-06T18:29:49.300Z,18.48
2023-02-06T18:30:53.770Z,18.92
2023-02-06T18:32:01.615Z,18.98
2023-02-06T18:33:04.783Z,19.40
2023-02-06T18:34:08.593Z,18.85
2023-02-06T18:35:11.384Z,19.45
2023-02-06T18:36:18.637Z,19.83
2023-02-06T18:37:24.038Z,18.90
2023-02-06T18:38:30.410Z,19.70
2023-02-06T18:39:33.171Z,19.20
2023-02-06T18:40:46.859Z,18.90
2023-02-06T18:42:09.856Z,18.80
2023-02-06T18:43:15.683Z,19.02
2023-02-06T18:44:19.570Z,21.50
2023-02-06T18:45:31.590Z,19.20
2023-02-06T18:46:37.160Z,19.50
2023-02-06T18:47:42.976Z,19.40
2023-02-06T18:48:45.882Z,19.77
2023-02-06T18:49:48.308Z,18.17
2023-02-06T18:50:50.713Z,18.55
2023-02-06T18:51:54.397Z,18.77
2023-02-06T18:52:58.475Z,19.95
2023-02-06T18:54:02.060Z,17.95
2023-02-06T18:55:11.001Z,18.95
2023-02-06T18:56:17.905Z,18.73
2023-02-06T18:57:22.362Z,18.58
2023-02-06T18:58:26.632Z,18.33
2023-02-06T18:59:29.674Z,17.95
2023-02-06T19:00:38.174Z,18.85
2023-02-06T19:01:44.814Z,18.67
2023-02-06T19:02:47.429Z,19.20
2023-02-06T19:03:50.699Z,18.80
2023-02-06T19:04:54.736Z,18.83
2023-02-06T19:06:01.213Z,20.80
2023-02-06T19:07:03.934Z,18.77
2023-02-06T19:08:06.516Z,21.13
2023-02-06T19:09:16.834Z,20.15
2023-02-06T19:10:20.564Z,20.90
2023-02-06T19:11:23.388Z,18.38
2023-02-06T19:12:28.744Z,18.75
2023-02-06T19:13:31.521Z,19.98
2023-02-06T19:14:33.871Z,19.73
2023-02-06T19:15:38.391Z,20.50
2023-02-06T19:16:45.273Z,18.95
2023-02-06T19:17:50.709Z,20.02
2023-02-06T19:18:53.932Z,19.08
2023-02-06T19:19:58.192Z,18.70
2023-02-06T19:21:01.549Z,18.63
2023-02-06T19:22:04.787Z,18.67
2023-02-06T19:23:07.564Z,18.60
2023-02-06T19:24:20.912Z,18.80
2023-02-06T19:25:24.325Z,19.83
2023-02-06T19:26:30.973Z,20.20
2023-02-06T19:27:33.368Z,20.13
2023-02-06T19:28:38.580Z,20.42
2023-02-06T19:29:40.957Z,20.73
2023-02-06T19:30:43.228Z,20.10
2023-02-06T19:31:46.394Z,21.63
2023-02-06T19:32:51.638Z,21.08
2023-02-06T19:33:59.991Z,21.92
2023-02-06T19:35:03.635Z,20.13
2023-02-06T19:36:16.518Z,19.10
2023-02-06T19:37:20.941Z,19.17
2023-02-06T19:38:25.251Z,18.90
2023-02-06T19:39:34.574Z,20.08
2023-02-06T19:40:44.717Z,19.58
2023-02-06T19:41:49.571Z,17.83
2023-02-06T19:42:57.425Z,17.02
2023-02-06T19:44:14.986Z,18.42
2023-02-06T19:45:19.790Z,17.80
2023-02-06T19:46:25.630Z,18.83
2023-02-06T19:47:28.810Z,18.60
2023-02-06T19:48:37.521Z,20.40
2023-02-06T19:49:44.670Z,19.98
2023-02-06T19:50:48.841Z,20.90
2023-02-06T19:52:00.125Z,20.30
2023-02-06T19:53:06.285Z,20.30
2023-02-06T19:54:11.858Z,20.02
2023-02-06T19:55:16.332Z,21.15
2023-02-06T19:56:39.718Z,20.60
2023-02-06T19:57:43.296Z,21.05
2023-02-06T19:58:49.063Z,20.08
2023-02-06T19:59:54.870Z,19.13
2023-02-06T20:01:00.628Z,20.70
2023-02-06T20:02:04.766Z,19.88
2023-02-06T20:03:13.173Z,20.30
2023-02-06T20:06:16.051Z,35.05
2023-02-06T20:07:45.747Z,19.23
2023-02-06T20:09:15.119Z,19.77
2023-02-06T20:10:29.195Z,19.35
2023-02-06T20:12:48.927Z,18.67
2023-02-06T20:13:56.400Z,16.35
2023-02-06T20:17:17.923Z,19.00
2023-02-06T20:18:29.514Z,18.10
2023-02-06T20:19:34.186Z,19.17
2023-02-06T20:20:42.042Z,18.52
2023-02-06T20:21:51.204Z,18.88
2023-02-06T20:23:01.652Z,17.90
2023-02-06T20:24:07.591Z,18.50
2023-02-06T20:25:15.457Z,19.17
2023-02-06T20:26:21.817Z,19.25
2023-02-06T20:27:26.876Z,18.30
2023-02-06T20:28:31.924Z,19.40
2023-02-06T20:29:41.910Z,18.65
2023-02-06T20:30:48.194Z,19.70
2023-02-06T20:31:52.373Z,19.63
2023-02-06T20:32:56.017Z,19.40
2023-02-06T20:34:00.827Z,19.00
2023-02-06T20:35:07.069Z,20.17
2023-02-06T20:36:15.539Z,19.23
2023-02-06T20:37:21.824Z,17.88
2023-02-06T20:38:27.322Z,18.02
2023-02-06T20:39:31.222Z,17.08
2023-02-06T20:40:35.911Z,17.27
2023-02-06T20:41:44.499Z,17.73
2023-02-06T20:42:51.205Z,16.60
2023-02-06T20:44:02.164Z,17.25
2023-02-06T20:45:07.288Z,15.85
2023-02-06T20:46:11.936Z,16.13
2023-02-06T20:47:20.618Z,15.90
2023-02-06T20:48:26.008Z,15.82
2023-02-06T20:49:31.699Z,16.38
2023-02-06T20:50:37.702Z,16.75
2023-02-06T20:51:41.266Z,16.25
2023-02-06T20:52:47.388Z,16.42
2023-02-06T20:53:55.784Z,17.55
2023-02-06T20:55:04.302Z,16.85
2023-02-06T20:56:19.486Z,16.55
2023-02-06T20:57:28.147Z,15.98
2023-02-06T20:58:37.074Z,17.98
2023-02-06T20:59:42.835Z,17.13
2023-02-06T21:00:53.445Z,16.58
2023-02-06T21:02:02.285Z,17.17
2023-02-06T21:03:10.438Z,16.02
2023-02-06T21:04:17.903Z,19.25
2023-02-06T21:05:25.834Z,16.00
2023-02-06T21:06:33.930Z,17.23
2023-02-06T21:07:41.925Z,17.17
2023-02-06T21:08:51.359Z,16.40
2023-02-06T21:09:57.818Z,16.48
2023-02-06T21:11:11.099Z,16.00
2023-02-06T21:12:20.356Z,14.70
2023-02-06T21:13:24.296Z,12.77
2023-02-06T21:14:30.303Z,15.40
2023-02-06T21:15:34.161Z,15.15
2023-02-06T21:16:42.476Z,15.63
2023-02-06T21:17:47.997Z,16.77
2023-02-06T21:18:55.854Z,15.98
2023-02-06T21:19:59.516Z,15.77
2023-02-06T21:21:11.469Z,17.38
2023-02-06T21:22:19.393Z,15.82
2023-02-06T21:23:23.536Z,16.42
2023-02-06T21:24:29.036Z,16.02
2023-02-06T21:25:39.099Z,16.05
2023-02-06T21:26:45.201Z,16.70
2023-02-06T21:27:57.605Z,17.98
2023-02-06T21:35:02.976Z,16.63
2023-02-06T21:36:10.818Z,17.48
2023-02-06T21:37:15.113Z,18.75
2023-02-06T21:38:25.905Z,18.50
2023-02-06T21:39:30.826Z,18.23
2023-02-06T21:40:39.891Z,18.30
2023-02-06T21:41:52.109Z,16.42
2023-02-06T21:43:21.432Z,18.08
2023-02-06T21:44:34.476Z,18.02
2023-02-06T21:45:41.279Z,17.40
2023-02-06T21:46:52.260Z,17.08
2023-02-06T21:48:07.187Z,18.35
2023-02-06T21:49:24.130Z,17.10
2023-02-06T21:50:29.524Z,16.38
2023-02-06T21:51:33.135Z,17.35
2023-02-06T21:52:41.220Z,17.48
2023-02-06T21:53:50.139Z,17.50
2023-02-06T21:55:02.571Z,16.83
2023-02-06T21:56:09.184Z,17.27
2023-02-06T21:57:14.242Z,17.25
2023-02-06T21:58:21.213Z,17.55
2023-02-06T21:59:28.731Z,16.85
2023-02-06T22:00:36.889Z,18.60
2023-02-06T22:01:43.896Z,17.85
2023-02-06T22:02:49.672Z,18.85
2023-02-06T22:03:54.886Z,18.13
2023-02-06T22:05:00.559Z,18.35
2023-02-06T22:06:09.026Z,18.95
2023-02-06T22:07:13.777Z,18.02
2023-02-06T22:08:20.603Z,17.83
2023-02-06T22:09:24.070Z,18.45
2023-02-06T22:10:31.476Z,18.63
2023-02-06T22:11:38.164Z,19.88
2023-02-06T22:12:44.450Z,18.25
2023-02-06T22:13:49.230Z,18.98
2023-02-06T22:14:53.428Z,18.48
2023-02-06T22:15:57.691Z,19.10
2023-02-06T22:17:01.669Z,18.75
2023-02-06T22:18:17.173Z,18.92
2023-02-06T22:19:21.344Z,20.10
2023-02-06T22:20:26.430Z,19.30
2023-02-06T22:21:32.519Z,19.48
2023-02-06T22:22:41.281Z,20.50
2023-02-06T22:23:50.812Z,19.90
2023-02-06T22:24:55.479Z,17.83
2023-02-06T22:26:02.754Z,18.88
2023-02-06T22:27:06.502Z,19.13
2023-02-06T22:28:09.873Z,18.23
2023-02-06T22:29:18.432Z,19.33
2023-02-06T22:30:23.514Z,18.92
2023-02-06T22:31:33.108Z,16.52
2023-02-06T22:32:42.861Z,17.27
2023-02-06T22:33:46.468Z,17.80
2023-02-06T22:34:54.503Z,17.33
2023-02-06T22:35:59.182Z,18.13
2023-02-06T22:37:05.210Z,17.35
2023-02-06T22:38:38.329Z,17.95
2023-02-06T22:39:45.932Z,16.05
2023-02-06T22:41:05.257Z,16.52
2023-02-06T22:42:10.296Z,16.92
2023-02-06T22:43:19.737Z,17.17
2023-02-06T22:44:25.784Z,16.58
2023-02-06T22:45:32.280Z,16.95
2023-02-06T22:46:40.642Z,15.38
2023-02-06T22:47:44.222Z,15.85
2023-02-06T22:48:48.316Z,15.32
2023-02-06T22:49:56.908Z,15.43
2023-02-06T22:51:08.931Z,15.27
2023-02-06T22:52:31.176Z,14.60
2023-02-06T22:53:34.741Z,14.60
2023-02-06T22:54:44.309Z,13.82
2023-02-06T22:56:07.581Z,14.75
2023-02-06T22:57:10.723Z,14.35
2023-02-06T22:58:14.342Z,15.57
2023-02-06T22:59:35.934Z,14.07
2023-02-06T23:00:43.236Z,12.75
2023-02-06T23:01:50.841Z,12.88
2023-02-06T23:02:58.825Z,12.60
2023-02-06T23:04:20.444Z,15.95
2023-02-06T23:05:24.296Z,14.32
2023-02-06T23:06:30.940Z,13.55
2023-02-06T23:07:37.681Z,14.52
2023-02-06T23:08:47.143Z,14.70
2023-02-06T23:09:53.106Z,15.70
2023-02-06T23:10:59.805Z,15.38
2023-02-06T23:12:04.399Z,16.00
2023-02-06T23:13:09.731Z,15.38
2023-02-06T23:14:16.530Z,16.50
2023-02-06T23:15:21.103Z,15.60
2023-02-06T23:16:27.480Z,14.50
2023-02-06T23:17:32.716Z,15.90
2023-02-06T23:18:37.365Z,15.32
2023-02-06T23:19:42.363Z,16.00
2023-02-06T23:20:46.495Z,14.80
2023-02-06T23:21:54.351Z,14.60
2023-02-06T23:22:59.658Z,14.70
2023-02-06T23:24:05.300Z,16.42
2023-02-06T23:25:10.589Z,14.55
2023-02-06T23:26:16.775Z,15.23
2023-02-06T23:27:24.127Z,15.05
2023-02-06T23:28:30.999Z,15.48
2023-02-06T23:29:38.182Z,15.27
2023-02-06T23:30:43.862Z,15.13
2023-02-06T23:31:48.693Z,13.52
2023-02-06T23:32:53.105Z,14.10
2023-02-06T23:33:56.762Z,12.93
2023-02-06T23:35:00.888Z,13.35
2023-02-06T23:36:16.530Z,14.18
2023-02-06T23:37:22.902Z,13.52
2023-02-06T23:38:29.071Z,13.85
2023-02-06T23:39:34.981Z,13.05
2023-02-06T23:40:40.202Z,13.75
2023-02-06T23:41:43.673Z,13.73
2023-02-06T23:42:49.288Z,13.27
2023-02-06T23:44:04.265Z,14.07
2023-02-06T23:45:35.313Z,14.10
2023-02-06T23:46:43.239Z,14.00
2023-02-06T23:47:48.163Z,13.60
2023-02-06T23:48:53.693Z,13.35
2023-02-06T23:49:59.779Z,13.15
2023-02-06T23:51:06.846Z,13.27
2023-02-06T23:52:10.255Z,13.52
2023-02-06T23:53:13.569Z,12.23
2023-02-06T23:54:17.310Z,12.82
2023-02-06T23:55:24.568Z,12.32
2023-02-06T23:56:30.204Z,13.55
2023-02-06T23:57:38.297Z,13.30
2023-02-06T23:58:44.272Z,12.50
2023-02-06T23:59:47.731Z,13.23
